sensor_id;sensor_type;location;lat;lon;timestamp;P1;durP1;ratioP1;P2;durP2;ratioP2
71174;SDS011;58876;51.994;4.472;2023-07-30T00:01:19;8.25;;;6.09;;
71174;SDS011;58876;51.994;4.472;2023-07-30T00:03:44;7.95;;;6.05;;
71174;SDS011;58876;51.994;4.472;2023-07-30T00:06:10;7.74;;;5.82;;
71174;SDS011;58876;51.994;4.472;2023-07-30T00:08:35;8.85;;;6.43;;
71174;SDS011;58876;51.994;4.472;2023-07-30T00:11:00;8.53;;;6.19;;
71174;SDS011;58876;51.994;4.472;2023-07-30T00:13:26;8.64;;;6.18;;
71174;SDS011;58876;51.994;4.472;2023-07-30T00:15:52;8.68;;;6.10;;
71174;SDS011;58876;51.994;4.472;2023-07-30T00:18:18;9.89;;;6.73;;
71174;SDS011;58876;51.994;4.472;2023-07-30T00:20:44;8.92;;;6.35;;
71174;SDS011;58876;51.994;4.472;2023-07-30T00:23:09;7.73;;;5.76;;
71174;SDS011;58876;51.994;4.472;2023-07-30T00:25:35;7.56;;;5.58;;
71174;SDS011;58876;51.994;4.472;2023-07-30T00:28:00;7.96;;;5.84;;
71174;SDS011;58876;51.994;4.472;2023-07-30T00:30:26;9.38;;;6.72;;
71174;SDS011;58876;51.994;4.472;2023-07-30T00:32:51;9.19;;;6.51;;
71174;SDS011;58876;51.994;4.472;2023-07-30T00:35:17;9.11;;;6.43;;
71174;SDS011;58876;51.994;4.472;2023-07-30T00:37:42;8.67;;;6.30;;
71174;SDS011;58876;51.994;4.472;2023-07-30T00:40:08;9.06;;;6.34;;
71174;SDS011;58876;51.994;4.472;2023-07-30T00:42:34;9.35;;;6.59;;
71174;SDS011;58876;51.994;4.472;2023-07-30T00:44:59;9.06;;;6.34;;
71174;SDS011;58876;51.994;4.472;2023-07-30T00:47:25;10.54;;;7.07;;
71174;SDS011;58876;51.994;4.472;2023-07-30T00:49:51;9.45;;;6.42;;
71174;SDS011;58876;51.994;4.472;2023-07-30T00:52:18;10.73;;;7.29;;
71174;SDS011;58876;51.994;4.472;2023-07-30T00:54:49;10.67;;;7.23;;
71174;SDS011;58876;51.994;4.472;2023-07-30T00:57:16;10.89;;;7.19;;
71174;SDS011;58876;51.994;4.472;2023-07-30T00:59:44;10.84;;;7.17;;
71174;SDS011;58876;51.994;4.472;2023-07-30T01:02:11;10.39;;;7.04;;
71174;SDS011;58876;51.994;4.472;2023-07-30T01:04:37;9.79;;;6.69;;
71174;SDS011;58876;51.994;4.472;2023-07-30T01:07:04;10.01;;;6.80;;
71174;SDS011;58876;51.994;4.472;2023-07-30T01:09:31;9.05;;;6.27;;
71174;SDS011;58876;51.994;4.472;2023-07-30T01:11:57;10.43;;;7.11;;
71174;SDS011;58876;51.994;4.472;2023-07-30T01:14:25;10.02;;;6.92;;
71174;SDS011;58876;51.994;4.472;2023-07-30T01:16:51;10.41;;;7.06;;
71174;SDS011;58876;51.994;4.472;2023-07-30T01:19:18;11.03;;;7.32;;
71174;SDS011;58876;51.994;4.472;2023-07-30T01:21:43;9.80;;;6.64;;
71174;SDS011;58876;51.994;4.472;2023-07-30T01:24:09;9.74;;;6.61;;
71174;SDS011;58876;51.994;4.472;2023-07-30T01:26:37;10.59;;;7.38;;
71174;SDS011;58876;51.994;4.472;2023-07-30T01:29:06;10.44;;;7.12;;
71174;SDS011;58876;51.994;4.472;2023-07-30T01:31:41;10.02;;;6.87;;
71174;SDS011;58876;51.994;4.472;2023-07-30T01:34:09;9.95;;;6.71;;
71174;SDS011;58876;51.994;4.472;2023-07-30T01:36:37;10.79;;;7.07;;
71174;SDS011;58876;51.994;4.472;2023-07-30T01:39:05;12.28;;;7.93;;
71174;SDS011;58876;51.994;4.472;2023-07-30T01:41:31;10.45;;;6.91;;
71174;SDS011;58876;51.994;4.472;2023-07-30T01:43:57;10.88;;;7.26;;
71174;SDS011;58876;51.994;4.472;2023-07-30T01:46:22;9.65;;;6.50;;
71174;SDS011;58876;51.994;4.472;2023-07-30T01:48:48;10.87;;;7.21;;
71174;SDS011;58876;51.994;4.472;2023-07-30T01:51:13;10.35;;;6.94;;
71174;SDS011;58876;51.994;4.472;2023-07-30T01:53:39;12.04;;;7.90;;
71174;SDS011;58876;51.994;4.472;2023-07-30T01:56:04;11.17;;;7.30;;
71174;SDS011;58876;51.994;4.472;2023-07-30T01:58:30;10.62;;;6.92;;
71174;SDS011;58876;51.994;4.472;2023-07-30T02:00:55;11.23;;;7.37;;
71174;SDS011;58876;51.994;4.472;2023-07-30T02:03:21;11.21;;;7.24;;
71174;SDS011;58876;51.994;4.472;2023-07-30T02:05:46;11.50;;;7.44;;
71174;SDS011;58876;51.994;4.472;2023-07-30T02:08:11;13.21;;;8.38;;
71174;SDS011;58876;51.994;4.472;2023-07-30T02:10:41;12.28;;;7.90;;
71174;SDS011;58876;51.994;4.472;2023-07-30T02:13:06;10.86;;;7.09;;
71174;SDS011;58876;51.994;4.472;2023-07-30T02:15:32;11.46;;;7.44;;
71174;SDS011;58876;51.994;4.472;2023-07-30T02:17:57;11.26;;;7.42;;
71174;SDS011;58876;51.994;4.472;2023-07-30T02:20:23;11.87;;;7.81;;
71174;SDS011;58876;51.994;4.472;2023-07-30T02:22:48;11.70;;;7.61;;
71174;SDS011;58876;51.994;4.472;2023-07-30T02:25:14;11.48;;;7.44;;
71174;SDS011;58876;51.994;4.472;2023-07-30T02:27:39;12.10;;;7.84;;
71174;SDS011;58876;51.994;4.472;2023-07-30T02:30:05;11.83;;;7.60;;
71174;SDS011;58876;51.994;4.472;2023-07-30T02:32:31;12.22;;;7.93;;
71174;SDS011;58876;51.994;4.472;2023-07-30T02:34:56;12.40;;;7.98;;
71174;SDS011;58876;51.994;4.472;2023-07-30T02:37:22;10.94;;;7.20;;
71174;SDS011;58876;51.994;4.472;2023-07-30T02:39:47;11.68;;;7.56;;
71174;SDS011;58876;51.994;4.472;2023-07-30T02:42:13;12.13;;;7.84;;
71174;SDS011;58876;51.994;4.472;2023-07-30T02:44:38;12.29;;;8.02;;
71174;SDS011;58876;51.994;4.472;2023-07-30T02:47:04;10.42;;;6.86;;
71174;SDS011;58876;51.994;4.472;2023-07-30T02:49:29;11.62;;;7.61;;
71174;SDS011;58876;51.994;4.472;2023-07-30T02:51:55;12.29;;;7.87;;
71174;SDS011;58876;51.994;4.472;2023-07-30T02:54:20;11.78;;;7.67;;
71174;SDS011;58876;51.994;4.472;2023-07-30T02:56:47;10.46;;;6.98;;
71174;SDS011;58876;51.994;4.472;2023-07-30T02:59:12;10.64;;;7.02;;
71174;SDS011;58876;51.994;4.472;2023-07-30T03:01:38;11.19;;;7.27;;
71174;SDS011;58876;51.994;4.472;2023-07-30T03:04:04;11.56;;;7.46;;
71174;SDS011;58876;51.994;4.472;2023-07-30T03:06:30;11.78;;;7.79;;
71174;SDS011;58876;51.994;4.472;2023-07-30T03:08:56;10.85;;;7.12;;
71174;SDS011;58876;51.994;4.472;2023-07-30T03:11:22;10.69;;;6.99;;
71174;SDS011;58876;51.994;4.472;2023-07-30T03:13:48;9.89;;;6.52;;
71174;SDS011;58876;51.994;4.472;2023-07-30T03:16:13;11.30;;;7.40;;
71174;SDS011;58876;51.994;4.472;2023-07-30T03:18:39;10.23;;;6.76;;
71174;SDS011;58876;51.994;4.472;2023-07-30T03:21:04;10.38;;;6.83;;
71174;SDS011;58876;51.994;4.472;2023-07-30T03:23:30;10.62;;;6.93;;
71174;SDS011;58876;51.994;4.472;2023-07-30T03:25:56;9.77;;;6.54;;
71174;SDS011;58876;51.994;4.472;2023-07-30T03:28:22;9.49;;;6.41;;
71174;SDS011;58876;51.994;4.472;2023-07-30T03:30:48;8.61;;;5.84;;
71174;SDS011;58876;51.994;4.472;2023-07-30T03:33:13;9.42;;;6.27;;
71174;SDS011;58876;51.994;4.472;2023-07-30T03:35:39;9.88;;;6.56;;
71174;SDS011;58876;51.994;4.472;2023-07-30T03:38:04;9.04;;;6.05;;
71174;SDS011;58876;51.994;4.472;2023-07-30T03:40:30;9.39;;;6.43;;
71174;SDS011;58876;51.994;4.472;2023-07-30T03:42:55;8.08;;;5.54;;
71174;SDS011;58876;51.994;4.472;2023-07-30T03:45:21;8.29;;;5.76;;
71174;SDS011;58876;51.994;4.472;2023-07-30T03:47:46;7.73;;;5.42;;
71174;SDS011;58876;51.994;4.472;2023-07-30T03:50:12;7.60;;;5.22;;
71174;SDS011;58876;51.994;4.472;2023-07-30T03:52:37;7.71;;;5.27;;
71174;SDS011;58876;51.994;4.472;2023-07-30T03:55:03;6.55;;;4.64;;
71174;SDS011;58876;51.994;4.472;2023-07-30T03:57:29;5.88;;;4.23;;
71174;SDS011;58876;51.994;4.472;2023-07-30T03:59:55;5.91;;;4.30;;
71174;SDS011;58876;51.994;4.472;2023-07-30T04:02:20;5.66;;;4.08;;
71174;SDS011;58876;51.994;4.472;2023-07-30T04:04:46;5.31;;;3.83;;
71174;SDS011;58876;51.994;4.472;2023-07-30T04:07:14;4.98;;;3.67;;
71174;SDS011;58876;51.994;4.472;2023-07-30T04:09:39;5.13;;;3.83;;
71174;SDS011;58876;51.994;4.472;2023-07-30T04:12:05;4.03;;;3.08;;
71174;SDS011;58876;51.994;4.472;2023-07-30T04:14:30;3.75;;;2.95;;
71174;SDS011;58876;51.994;4.472;2023-07-30T04:16:56;3.98;;;3.04;;
71174;SDS011;58876;51.994;4.472;2023-07-30T04:19:21;3.68;;;2.82;;
71174;SDS011;58876;51.994;4.472;2023-07-30T04:21:47;3.89;;;2.94;;
71174;SDS011;58876;51.994;4.472;2023-07-30T04:24:12;3.72;;;2.78;;
71174;SDS011;58876;51.994;4.472;2023-07-30T04:26:38;4.13;;;3.08;;
71174;SDS011;58876;51.994;4.472;2023-07-30T04:29:03;3.64;;;2.75;;
71174;SDS011;58876;51.994;4.472;2023-07-30T04:31:29;4.12;;;3.09;;
71174;SDS011;58876;51.994;4.472;2023-07-30T04:33:54;3.60;;;2.72;;
71174;SDS011;58876;51.994;4.472;2023-07-30T04:36:19;3.69;;;2.76;;
71174;SDS011;58876;51.994;4.472;2023-07-30T04:38:45;3.66;;;2.71;;
71174;SDS011;58876;51.994;4.472;2023-07-30T04:41:10;3.92;;;2.88;;
71174;SDS011;58876;51.994;4.472;2023-07-30T04:43:36;3.75;;;2.78;;
71174;SDS011;58876;51.994;4.472;2023-07-30T04:46:01;3.42;;;2.59;;
71174;SDS011;58876;51.994;4.472;2023-07-30T04:48:27;3.54;;;2.72;;
71174;SDS011;58876;51.994;4.472;2023-07-30T04:50:52;3.30;;;2.55;;
71174;SDS011;58876;51.994;4.472;2023-07-30T04:53:18;3.75;;;2.90;;
71174;SDS011;58876;51.994;4.472;2023-07-30T04:55:45;3.28;;;2.57;;
71174;SDS011;58876;51.994;4.472;2023-07-30T04:58:11;3.46;;;2.69;;
71174;SDS011;58876;51.994;4.472;2023-07-30T05:00:37;3.61;;;2.80;;
71174;SDS011;58876;51.994;4.472;2023-07-30T05:03:02;3.36;;;2.63;;
71174;SDS011;58876;51.994;4.472;2023-07-30T05:05:28;3.39;;;2.63;;
71174;SDS011;58876;51.994;4.472;2023-07-30T05:07:53;3.65;;;2.86;;
71174;SDS011;58876;51.994;4.472;2023-07-30T05:10:19;3.40;;;2.68;;
71174;SDS011;58876;51.994;4.472;2023-07-30T05:12:45;4.29;;;3.32;;
71174;SDS011;58876;51.994;4.472;2023-07-30T05:15:10;4.46;;;3.41;;
71174;SDS011;58876;51.994;4.472;2023-07-30T05:17:36;6.05;;;4.49;;
71174;SDS011;58876;51.994;4.472;2023-07-30T05:20:01;7.25;;;5.27;;
71174;SDS011;58876;51.994;4.472;2023-07-30T05:22:27;7.55;;;5.32;;
71174;SDS011;58876;51.994;4.472;2023-07-30T05:24:52;7.85;;;5.66;;
71174;SDS011;58876;51.994;4.472;2023-07-30T05:27:18;6.93;;;5.09;;
71174;SDS011;58876;51.994;4.472;2023-07-30T05:29:43;7.62;;;5.36;;
71174;SDS011;58876;51.994;4.472;2023-07-30T05:32:09;7.90;;;5.60;;
71174;SDS011;58876;51.994;4.472;2023-07-30T05:34:34;7.11;;;5.19;;
71174;SDS011;58876;51.994;4.472;2023-07-30T05:37:00;7.06;;;5.19;;
71174;SDS011;58876;51.994;4.472;2023-07-30T05:39:25;7.43;;;5.41;;
71174;SDS011;58876;51.994;4.472;2023-07-30T05:41:51;6.50;;;4.88;;
71174;SDS011;58876;51.994;4.472;2023-07-30T05:44:17;6.41;;;4.89;;
71174;SDS011;58876;51.994;4.472;2023-07-30T05:46:42;7.54;;;5.58;;
71174;SDS011;58876;51.994;4.472;2023-07-30T05:49:08;7.38;;;5.44;;
71174;SDS011;58876;51.994;4.472;2023-07-30T05:51:33;7.14;;;5.21;;
71174;SDS011;58876;51.994;4.472;2023-07-30T05:53:59;6.94;;;5.16;;
71174;SDS011;58876;51.994;4.472;2023-07-30T05:56:25;7.36;;;5.45;;
71174;SDS011;58876;51.994;4.472;2023-07-30T05:58:50;7.04;;;5.13;;
71174;SDS011;58876;51.994;4.472;2023-07-30T06:01:15;7.23;;;5.30;;
71174;SDS011;58876;51.994;4.472;2023-07-30T06:03:41;6.58;;;4.71;;
71174;SDS011;58876;51.994;4.472;2023-07-30T06:06:06;7.85;;;5.60;;
71174;SDS011;58876;51.994;4.472;2023-07-30T06:08:32;7.12;;;5.10;;
71174;SDS011;58876;51.994;4.472;2023-07-30T06:11:03;7.79;;;5.54;;
71174;SDS011;58876;51.994;4.472;2023-07-30T06:13:29;6.83;;;4.80;;
71174;SDS011;58876;51.994;4.472;2023-07-30T06:15:55;6.49;;;4.67;;
71174;SDS011;58876;51.994;4.472;2023-07-30T06:18:21;7.32;;;5.18;;
71174;SDS011;58876;51.994;4.472;2023-07-30T06:20:46;7.31;;;5.18;;
71174;SDS011;58876;51.994;4.472;2023-07-30T06:23:12;7.31;;;5.10;;
71174;SDS011;58876;51.994;4.472;2023-07-30T06:25:37;6.85;;;4.84;;
71174;SDS011;58876;51.994;4.472;2023-07-30T06:28:04;7.27;;;5.20;;
71174;SDS011;58876;51.994;4.472;2023-07-30T06:30:30;7.31;;;5.26;;
71174;SDS011;58876;51.994;4.472;2023-07-30T06:32:55;6.85;;;4.93;;
71174;SDS011;58876;51.994;4.472;2023-07-30T06:35:21;6.78;;;4.92;;
71174;SDS011;58876;51.994;4.472;2023-07-30T06:37:46;6.47;;;4.82;;
71174;SDS011;58876;51.994;4.472;2023-07-30T06:40:12;6.60;;;4.79;;
71174;SDS011;58876;51.994;4.472;2023-07-30T06:42:37;7.30;;;5.22;;
71174;SDS011;58876;51.994;4.472;2023-07-30T06:45:03;7.50;;;5.54;;
71174;SDS011;58876;51.994;4.472;2023-07-30T06:47:29;8.09;;;6.71;;
71174;SDS011;58876;51.994;4.472;2023-07-30T06:49:54;6.06;;;4.61;;
71174;SDS011;58876;51.994;4.472;2023-07-30T06:52:20;6.54;;;4.74;;
71174;SDS011;58876;51.994;4.472;2023-07-30T06:54:45;7.62;;;5.48;;
71174;SDS011;58876;51.994;4.472;2023-07-30T06:57:11;7.21;;;5.41;;
71174;SDS011;58876;51.994;4.472;2023-07-30T06:59:36;6.97;;;5.37;;
71174;SDS011;58876;51.994;4.472;2023-07-30T07:02:02;7.28;;;5.59;;
71174;SDS011;58876;51.994;4.472;2023-07-30T07:04:27;6.96;;;5.26;;
71174;SDS011;58876;51.994;4.472;2023-07-30T07:06:53;6.88;;;5.34;;
71174;SDS011;58876;51.994;4.472;2023-07-30T07:09:18;7.00;;;5.44;;
71174;SDS011;58876;51.994;4.472;2023-07-30T07:11:45;7.72;;;5.95;;
71174;SDS011;58876;51.994;4.472;2023-07-30T07:14:10;7.56;;;5.79;;
71174;SDS011;58876;51.994;4.472;2023-07-30T07:16:36;7.52;;;5.73;;
71174;SDS011;58876;51.994;4.472;2023-07-30T07:19:01;7.65;;;5.67;;
71174;SDS011;58876;51.994;4.472;2023-07-30T07:21:27;6.74;;;5.03;;
71174;SDS011;58876;51.994;4.472;2023-07-30T07:23:53;6.92;;;5.15;;
71174;SDS011;58876;51.994;4.472;2023-07-30T07:26:18;6.50;;;4.89;;
71174;SDS011;58876;51.994;4.472;2023-07-30T07:28:44;5.93;;;4.66;;
71174;SDS011;58876;51.994;4.472;2023-07-30T07:31:09;5.60;;;4.39;;
71174;SDS011;58876;51.994;4.472;2023-07-30T07:33:34;5.44;;;4.26;;
71174;SDS011;58876;51.994;4.472;2023-07-30T07:36:07;5.88;;;4.42;;
71174;SDS011;58876;51.994;4.472;2023-07-30T07:38:33;5.52;;;4.08;;
71174;SDS011;58876;51.994;4.472;2023-07-30T07:41:02;4.77;;;3.57;;
71174;SDS011;58876;51.994;4.472;2023-07-30T07:43:28;4.15;;;3.05;;
71174;SDS011;58876;51.994;4.472;2023-07-30T07:45:53;3.84;;;2.85;;
71174;SDS011;58876;51.994;4.472;2023-07-30T07:48:19;4.33;;;3.16;;
71174;SDS011;58876;51.994;4.472;2023-07-30T07:50:45;4.47;;;3.22;;
71174;SDS011;58876;51.994;4.472;2023-07-30T07:53:11;4.18;;;3.04;;
71174;SDS011;58876;51.994;4.472;2023-07-30T07:55:36;4.59;;;3.32;;
71174;SDS011;58876;51.994;4.472;2023-07-30T07:58:02;4.16;;;3.03;;
71174;SDS011;58876;51.994;4.472;2023-07-30T08:00:27;4.91;;;3.53;;
71174;SDS011;58876;51.994;4.472;2023-07-30T08:02:53;4.56;;;3.22;;
71174;SDS011;58876;51.994;4.472;2023-07-30T08:05:18;4.72;;;3.41;;
71174;SDS011;58876;51.994;4.472;2023-07-30T08:07:47;4.76;;;3.40;;
71174;SDS011;58876;51.994;4.472;2023-07-30T08:10:13;4.26;;;3.02;;
71174;SDS011;58876;51.994;4.472;2023-07-30T08:12:38;4.18;;;2.98;;
71174;SDS011;58876;51.994;4.472;2023-07-30T08:15:04;3.97;;;2.87;;
71174;SDS011;58876;51.994;4.472;2023-07-30T08:17:30;3.71;;;2.73;;
71174;SDS011;58876;51.994;4.472;2023-07-30T08:19:55;4.28;;;3.16;;
71174;SDS011;58876;51.994;4.472;2023-07-30T08:22:21;4.92;;;3.60;;
71174;SDS011;58876;51.994;4.472;2023-07-30T08:24:46;4.70;;;3.38;;
71174;SDS011;58876;51.994;4.472;2023-07-30T08:27:12;4.29;;;3.11;;
71174;SDS011;58876;51.994;4.472;2023-07-30T08:29:37;4.91;;;3.61;;
71174;SDS011;58876;51.994;4.472;2023-07-30T08:32:03;4.58;;;3.35;;
71174;SDS011;58876;51.994;4.472;2023-07-30T08:34:28;4.74;;;3.49;;
71174;SDS011;58876;51.994;4.472;2023-07-30T08:36:54;4.54;;;3.34;;
71174;SDS011;58876;51.994;4.472;2023-07-30T08:39:19;4.39;;;3.25;;
71174;SDS011;58876;51.994;4.472;2023-07-30T08:41:45;4.23;;;3.17;;
71174;SDS011;58876;51.994;4.472;2023-07-30T08:44:11;4.48;;;3.33;;
71174;SDS011;58876;51.994;4.472;2023-07-30T08:46:37;3.94;;;2.90;;
71174;SDS011;58876;51.994;4.472;2023-07-30T08:49:03;4.69;;;3.46;;
71174;SDS011;58876;51.994;4.472;2023-07-30T08:51:29;4.89;;;3.63;;
71174;SDS011;58876;51.994;4.472;2023-07-30T08:53:57;3.95;;;2.98;;
71174;SDS011;58876;51.994;4.472;2023-07-30T08:56:25;4.10;;;3.19;;
71174;SDS011;58876;51.994;4.472;2023-07-30T08:58:52;3.87;;;3.03;;
71174;SDS011;58876;51.994;4.472;2023-07-30T09:01:22;3.92;;;3.02;;
71174;SDS011;58876;51.994;4.472;2023-07-30T09:03:58;4.10;;;3.10;;
71174;SDS011;58876;51.994;4.472;2023-07-30T09:06:25;4.02;;;2.98;;
71174;SDS011;58876;51.994;4.472;2023-07-30T09:08:51;4.00;;;2.97;;
71174;SDS011;58876;51.994;4.472;2023-07-30T09:11:18;4.23;;;3.08;;
71174;SDS011;58876;51.994;4.472;2023-07-30T09:13:43;4.17;;;3.01;;
71174;SDS011;58876;51.994;4.472;2023-07-30T09:16:13;4.13;;;2.91;;
71174;SDS011;58876;51.994;4.472;2023-07-30T09:18:40;4.54;;;3.25;;
71174;SDS011;58876;51.994;4.472;2023-07-30T09:21:10;3.92;;;2.86;;
71174;SDS011;58876;51.994;4.472;2023-07-30T09:23:40;3.91;;;2.84;;
71174;SDS011;58876;51.994;4.472;2023-07-30T09:26:07;3.89;;;2.81;;
71174;SDS011;58876;51.994;4.472;2023-07-30T09:28:33;4.18;;;3.05;;
71174;SDS011;58876;51.994;4.472;2023-07-30T09:31:02;4.01;;;2.92;;
71174;SDS011;58876;51.994;4.472;2023-07-30T09:33:33;3.70;;;2.69;;
71174;SDS011;58876;51.994;4.472;2023-07-30T09:36:03;3.65;;;2.66;;
71174;SDS011;58876;51.994;4.472;2023-07-30T09:38:29;4.14;;;3.00;;
71174;SDS011;58876;51.994;4.472;2023-07-30T09:41:01;4.45;;;3.26;;
71174;SDS011;58876;51.994;4.472;2023-07-30T09:43:28;3.62;;;2.71;;
71174;SDS011;58876;51.994;4.472;2023-07-30T09:46:00;3.96;;;2.94;;
71174;SDS011;58876;51.994;4.472;2023-07-30T09:48:29;3.68;;;2.74;;
71174;SDS011;58876;51.994;4.472;2023-07-30T09:50:56;4.41;;;3.31;;
71174;SDS011;58876;51.994;4.472;2023-07-30T09:53:24;3.37;;;2.51;;
71174;SDS011;58876;51.994;4.472;2023-07-30T09:55:50;3.25;;;2.42;;
71174;SDS011;58876;51.994;4.472;2023-07-30T09:58:16;3.21;;;2.38;;
71174;SDS011;58876;51.994;4.472;2023-07-30T10:00:42;3.31;;;2.42;;
71174;SDS011;58876;51.994;4.472;2023-07-30T10:03:09;3.40;;;2.47;;
71174;SDS011;58876;51.994;4.472;2023-07-30T10:05:37;3.28;;;2.36;;
71174;SDS011;58876;51.994;4.472;2023-07-30T10:08:09;3.44;;;2.51;;
71174;SDS011;58876;51.994;4.472;2023-07-30T10:10:39;4.06;;;2.92;;
71174;SDS011;58876;51.994;4.472;2023-07-30T10:13:06;3.55;;;2.59;;
71174;SDS011;58876;51.994;4.472;2023-07-30T10:15:39;3.75;;;2.72;;
71174;SDS011;58876;51.994;4.472;2023-07-30T10:18:05;3.35;;;2.50;;
71174;SDS011;58876;51.994;4.472;2023-07-30T10:20:31;3.31;;;2.51;;
71174;SDS011;58876;51.994;4.472;2023-07-30T10:22:57;3.81;;;2.82;;
71174;SDS011;58876;51.994;4.472;2023-07-30T10:28:07;3.65;;;2.76;;
71174;SDS011;58876;51.994;4.472;2023-07-30T10:30:33;3.56;;;2.67;;
71174;SDS011;58876;51.994;4.472;2023-07-30T10:33:00;3.11;;;2.34;;
71174;SDS011;58876;51.994;4.472;2023-07-30T10:35:40;3.82;;;2.87;;
71174;SDS011;58876;51.994;4.472;2023-07-30T10:38:49;3.87;;;2.83;;
71174;SDS011;58876;51.994;4.472;2023-07-30T10:46:01;3.57;;;2.66;;
71174;SDS011;58876;51.994;4.472;2023-07-30T10:48:33;2.99;;;2.24;;
71174;SDS011;58876;51.994;4.472;2023-07-30T10:51:07;3.39;;;2.49;;
71174;SDS011;58876;51.994;4.472;2023-07-30T10:53:34;3.79;;;2.71;;
71174;SDS011;58876;51.994;4.472;2023-07-30T10:56:04;3.82;;;2.67;;
71174;SDS011;58876;51.994;4.472;2023-07-30T10:58:31;3.74;;;2.94;;
71174;SDS011;58876;51.994;4.472;2023-07-30T11:00:59;3.09;;;2.50;;
71174;SDS011;58876;51.994;4.472;2023-07-30T11:03:27;2.87;;;2.21;;
71174;SDS011;58876;51.994;4.472;2023-07-30T11:05:53;3.50;;;2.67;;
71174;SDS011;58876;51.994;4.472;2023-07-30T11:08:21;3.50;;;2.59;;
71174;SDS011;58876;51.994;4.472;2023-07-30T11:10:58;3.42;;;2.53;;
71174;SDS011;58876;51.994;4.472;2023-07-30T11:13:24;3.19;;;2.31;;
71174;SDS011;58876;51.994;4.472;2023-07-30T11:15:50;3.39;;;2.48;;
71174;SDS011;58876;51.994;4.472;2023-07-30T11:18:15;3.90;;;2.83;;
71174;SDS011;58876;51.994;4.472;2023-07-30T11:20:41;3.73;;;2.78;;
71174;SDS011;58876;51.994;4.472;2023-07-30T11:23:17;2.89;;;2.18;;
71174;SDS011;58876;51.994;4.472;2023-07-30T11:25:51;3.36;;;2.55;;
71174;SDS011;58876;51.994;4.472;2023-07-30T11:28:33;3.17;;;2.35;;
71174;SDS011;58876;51.994;4.472;2023-07-30T11:33:52;3.41;;;2.48;;
71174;SDS011;58876;51.994;4.472;2023-07-30T11:36:19;3.52;;;2.58;;
71174;SDS011;58876;51.994;4.472;2023-07-30T11:38:46;3.65;;;2.68;;
71174;SDS011;58876;51.994;4.472;2023-07-30T11:41:13;2.97;;;2.17;;
71174;SDS011;58876;51.994;4.472;2023-07-30T11:43:41;3.29;;;2.39;;
71174;SDS011;58876;51.994;4.472;2023-07-30T11:48:38;3.40;;;2.45;;
71174;SDS011;58876;51.994;4.472;2023-07-30T11:51:05;3.80;;;2.67;;
71174;SDS011;58876;51.994;4.472;2023-07-30T11:53:48;3.38;;;2.39;;
71174;SDS011;58876;51.994;4.472;2023-07-30T11:56:19;3.53;;;2.46;;
71174;SDS011;58876;51.994;4.472;2023-07-30T11:58:50;3.92;;;2.74;;
71174;SDS011;58876;51.994;4.472;2023-07-30T12:01:17;3.94;;;2.78;;
71174;SDS011;58876;51.994;4.472;2023-07-30T12:03:43;4.48;;;3.14;;
71174;SDS011;58876;51.994;4.472;2023-07-30T12:06:10;4.24;;;2.92;;
71174;SDS011;58876;51.994;4.472;2023-07-30T12:08:37;3.73;;;2.55;;
71174;SDS011;58876;51.994;4.472;2023-07-30T12:11:04;3.67;;;2.50;;
71174;SDS011;58876;51.994;4.472;2023-07-30T12:13:31;2.89;;;2.01;;
71174;SDS011;58876;51.994;4.472;2023-07-30T12:15:56;3.02;;;2.12;;
71174;SDS011;58876;51.994;4.472;2023-07-30T12:18:23;2.90;;;2.08;;
71174;SDS011;58876;51.994;4.472;2023-07-30T12:20:50;2.70;;;1.93;;
71174;SDS011;58876;51.994;4.472;2023-07-30T12:23:16;3.33;;;2.35;;
71174;SDS011;58876;51.994;4.472;2023-07-30T12:25:42;2.88;;;2.04;;
71174;SDS011;58876;51.994;4.472;2023-07-30T12:28:08;3.75;;;2.63;;
71174;SDS011;58876;51.994;4.472;2023-07-30T12:30:33;3.33;;;2.37;;
71174;SDS011;58876;51.994;4.472;2023-07-30T12:33:00;3.48;;;2.50;;
71174;SDS011;58876;51.994;4.472;2023-07-30T12:35:26;3.18;;;2.25;;
71174;SDS011;58876;51.994;4.472;2023-07-30T12:37:51;2.99;;;2.11;;
71174;SDS011;58876;51.994;4.472;2023-07-30T12:40:17;3.02;;;2.19;;
71174;SDS011;58876;51.994;4.472;2023-07-30T12:42:43;2.84;;;2.07;;
71174;SDS011;58876;51.994;4.472;2023-07-30T12:45:08;2.80;;;2.04;;
71174;SDS011;58876;51.994;4.472;2023-07-30T12:47:34;3.37;;;2.46;;
71174;SDS011;58876;51.994;4.472;2023-07-30T12:50:01;2.98;;;2.20;;
71174;SDS011;58876;51.994;4.472;2023-07-30T12:52:28;3.33;;;2.45;;
71174;SDS011;58876;51.994;4.472;2023-07-30T12:54:53;3.72;;;2.69;;
71174;SDS011;58876;51.994;4.472;2023-07-30T12:57:19;3.61;;;2.57;;
71174;SDS011;58876;51.994;4.472;2023-07-30T12:59:44;3.52;;;2.49;;
71174;SDS011;58876;51.994;4.472;2023-07-30T13:02:10;4.53;;;3.14;;
71174;SDS011;58876;51.994;4.472;2023-07-30T13:04:35;4.25;;;2.97;;
71174;SDS011;58876;51.994;4.472;2023-07-30T13:07:01;3.77;;;2.62;;
71174;SDS011;58876;51.994;4.472;2023-07-30T13:09:30;4.49;;;3.10;;
71174;SDS011;58876;51.994;4.472;2023-07-30T13:11:56;4.57;;;3.14;;
71174;SDS011;58876;51.994;4.472;2023-07-30T13:14:22;4.47;;;3.08;;
71174;SDS011;58876;51.994;4.472;2023-07-30T13:16:47;5.21;;;3.60;;
71174;SDS011;58876;51.994;4.472;2023-07-30T13:19:13;4.67;;;3.23;;
71174;SDS011;58876;51.994;4.472;2023-07-30T13:21:38;4.39;;;3.05;;
71174;SDS011;58876;51.994;4.472;2023-07-30T13:24:04;5.23;;;3.51;;
71174;SDS011;58876;51.994;4.472;2023-07-30T13:26:29;5.85;;;3.94;;
71174;SDS011;58876;51.994;4.472;2023-07-30T13:28:55;4.95;;;3.41;;
71174;SDS011;58876;51.994;4.472;2023-07-30T13:31:20;5.06;;;3.52;;
71174;SDS011;58876;51.994;4.472;2023-07-30T13:33:46;6.37;;;4.29;;
71174;SDS011;58876;51.994;4.472;2023-07-30T13:36:13;5.91;;;3.95;;
71174;SDS011;58876;51.994;4.472;2023-07-30T13:38:39;5.40;;;3.57;;
71174;SDS011;58876;51.994;4.472;2023-07-30T13:41:05;7.02;;;4.67;;
71174;SDS011;58876;51.994;4.472;2023-07-30T13:43:31;6.89;;;4.50;;
71174;SDS011;58876;51.994;4.472;2023-07-30T13:45:57;7.62;;;4.89;;
71174;SDS011;58876;51.994;4.472;2023-07-30T13:48:24;6.29;;;4.16;;
71174;SDS011;58876;51.994;4.472;2023-07-30T13:50:50;7.43;;;4.90;;
71174;SDS011;58876;51.994;4.472;2023-07-30T13:53:15;7.48;;;4.88;;
71174;SDS011;58876;51.994;4.472;2023-07-30T13:55:41;8.21;;;5.27;;
71174;SDS011;58876;51.994;4.472;2023-07-30T13:58:06;7.80;;;5.09;;
71174;SDS011;58876;51.994;4.472;2023-07-30T14:00:33;7.03;;;4.77;;
71174;SDS011;58876;51.994;4.472;2023-07-30T14:02:58;7.70;;;5.22;;
71174;SDS011;58876;51.994;4.472;2023-07-30T14:05:24;7.00;;;4.74;;
71174;SDS011;58876;51.994;4.472;2023-07-30T14:07:49;6.92;;;4.67;;
71174;SDS011;58876;51.994;4.472;2023-07-30T14:10:18;6.82;;;4.65;;
71174;SDS011;58876;51.994;4.472;2023-07-30T14:12:44;7.17;;;4.90;;
71174;SDS011;58876;51.994;4.472;2023-07-30T14:15:10;7.57;;;5.15;;
71174;SDS011;58876;51.994;4.472;2023-07-30T14:17:35;7.11;;;4.92;;
71174;SDS011;58876;51.994;4.472;2023-07-30T14:20:00;7.31;;;5.06;;
71174;SDS011;58876;51.994;4.472;2023-07-30T14:22:26;6.71;;;4.76;;
71174;SDS011;58876;51.994;4.472;2023-07-30T14:24:51;7.18;;;5.08;;
71174;SDS011;58876;51.994;4.472;2023-07-30T14:27:17;6.87;;;4.98;;
71174;SDS011;58876;51.994;4.472;2023-07-30T14:29:43;7.18;;;5.04;;
71174;SDS011;58876;51.994;4.472;2023-07-30T14:32:08;6.58;;;4.70;;
71174;SDS011;58876;51.994;4.472;2023-07-30T14:34:34;6.59;;;4.79;;
71174;SDS011;58876;51.994;4.472;2023-07-30T14:36:59;6.54;;;4.85;;
71174;SDS011;58876;51.994;4.472;2023-07-30T14:39:25;7.31;;;5.38;;
71174;SDS011;58876;51.994;4.472;2023-07-30T14:41:50;7.88;;;5.64;;
71174;SDS011;58876;51.994;4.472;2023-07-30T14:44:16;8.16;;;5.89;;
71174;SDS011;58876;51.994;4.472;2023-07-30T14:46:42;7.91;;;5.72;;
71174;SDS011;58876;51.994;4.472;2023-07-30T14:49:07;8.72;;;6.26;;
71174;SDS011;58876;51.994;4.472;2023-07-30T14:51:33;8.22;;;5.97;;
71174;SDS011;58876;51.994;4.472;2023-07-30T14:53:58;7.89;;;5.80;;